Vinton, Louisiana
Current Conditions -  °F | °C
As of 12:35 PM on Thursday 23 Oct 2014 (Local Time) from KUXL Reporting Station
Clear Clear  
Wind Chill: 73°   Ceiling: Unl
Heat Index: 73°   Visibility: 10mi
Dew Point: 51°   Wind: 3mph
Humidity: 46%   Direction: 60°ENE
Pressure: 30.14"   Gusts: NA
Location:  30.19°N, 93.58°W
Report Text: KUXL 231735Z AUTO 06003KT 10SM CLR 23/10 A3014 RMK AO2 T02250103
Loading
Personal Weather Stations






























Interactive Weather Map
Tropical Storm Tracking
New forecast layout! Learn more

10-Day Weather Forecast

Advertisements
Track Severe Weather on mobile